createdAt,value
2023-05-21T00:01:05.477Z,10.20
2023-05-21T00:03:32.775Z,11.00
2023-05-21T00:06:00.090Z,9.37
2023-05-21T00:08:27.311Z,10.40
2023-05-21T00:10:55.807Z,8.73
2023-05-21T00:13:22.933Z,8.93
2023-05-21T00:15:50.126Z,9.03
2023-05-21T00:18:17.290Z,8.43
2023-05-21T00:20:44.347Z,8.83
2023-05-21T00:23:11.482Z,9.30
2023-05-21T00:25:38.543Z,7.67
2023-05-21T00:28:07.019Z,8.70
2023-05-21T00:30:34.128Z,8.73
2023-05-21T00:33:01.261Z,8.43
2023-05-21T00:35:28.511Z,7.63
2023-05-21T00:37:55.622Z,8.53
2023-05-21T00:40:22.729Z,7.40
2023-05-21T00:42:49.810Z,8.67
2023-05-21T00:45:18.317Z,9.40
2023-05-21T00:47:45.981Z,8.27
2023-05-21T00:50:13.218Z,7.67
2023-05-21T00:52:40.353Z,9.10
2023-05-21T00:55:07.980Z,8.43
2023-05-21T00:57:35.302Z,9.40
2023-05-21T01:00:02.403Z,8.93
2023-05-21T01:02:30.912Z,8.90
2023-05-21T01:04:58.027Z,8.17
2023-05-21T01:07:25.148Z,9.23
2023-05-21T01:09:52.360Z,8.97
2023-05-21T01:12:19.866Z,8.63
2023-05-21T01:14:47.520Z,9.17
2023-05-21T01:17:15.257Z,9.03
2023-05-21T01:19:44.929Z,8.90
2023-05-21T01:22:13.011Z,9.50
2023-05-21T01:24:41.412Z,9.23
2023-05-21T01:27:08.523Z,9.77
2023-05-21T01:29:35.651Z,10.00
2023-05-21T01:32:05.551Z,9.40
2023-05-21T01:34:34.981Z,9.00
2023-05-21T01:37:09.180Z,10.77
2023-05-21T01:39:38.321Z,10.00
2023-05-21T01:42:09.489Z,11.53
2023-05-21T01:44:36.871Z,9.70
2023-05-21T01:47:04.959Z,11.10
2023-05-21T01:49:32.265Z,9.97
2023-05-21T01:51:59.540Z,10.00
2023-05-21T01:54:26.714Z,9.83
2023-05-21T01:56:53.851Z,11.90
2023-05-21T01:59:22.335Z,9.90
2023-05-21T02:01:49.459Z,12.30
2023-05-21T02:04:16.621Z,12.00
2023-05-21T02:06:43.750Z,10.20
2023-05-21T02:09:10.829Z,10.53
2023-05-21T02:11:37.945Z,11.57
2023-05-21T02:14:05.051Z,10.93
2023-05-21T02:16:33.674Z,12.13
2023-05-21T02:19:00.999Z,11.80
2023-05-21T02:21:28.342Z,11.10
2023-05-21T02:23:55.462Z,10.90
2023-05-21T02:26:22.535Z,11.50
2023-05-21T02:28:49.655Z,10.77
2023-05-21T02:31:17.088Z,11.10
2023-05-21T02:33:45.550Z,11.90
2023-05-21T02:36:12.667Z,10.63
2023-05-21T02:38:40.196Z,11.30
2023-05-21T02:41:07.311Z,9.67
2023-05-21T02:43:34.417Z,10.20
2023-05-21T02:46:02.427Z,10.23
2023-05-21T02:48:30.202Z,10.30
2023-05-21T02:50:58.723Z,10.67
2023-05-21T02:53:25.934Z,11.67
2023-05-21T02:55:53.069Z,11.13
2023-05-21T02:58:20.222Z,10.97
2023-05-21T03:00:48.526Z,10.07
2023-05-21T03:03:15.814Z,10.30
2023-05-21T03:05:43.369Z,9.53
2023-05-21T03:08:11.834Z,10.77
2023-05-21T03:10:39.857Z,11.63
2023-05-21T03:13:09.477Z,10.60
2023-05-21T03:15:37.306Z,10.43
2023-05-21T03:18:05.640Z,9.57
2023-05-21T03:20:32.783Z,10.57
2023-05-21T03:23:00.023Z,10.30
2023-05-21T03:25:28.554Z,9.90
2023-05-21T03:27:55.687Z,9.40
2023-05-21T03:30:42.299Z,9.50
2023-05-21T03:33:28.416Z,9.50
2023-05-21T03:35:55.570Z,10.20
2023-05-21T03:38:24.187Z,10.00
2023-05-21T03:40:52.632Z,10.00
2023-05-21T03:43:19.826Z,10.37
2023-05-21T03:45:47.138Z,10.83
2023-05-21T03:48:48.312Z,10.50
2023-05-21T03:51:17.617Z,9.73
2023-05-21T03:53:45.130Z,8.70
2023-05-21T03:56:13.670Z,10.23
2023-05-21T03:58:41.654Z,10.37
2023-05-21T04:01:08.729Z,10.60
2023-05-21T04:03:39.225Z,10.43
2023-05-21T04:06:07.909Z,10.53
2023-05-21T04:08:35.005Z,9.53
2023-05-21T04:11:02.141Z,10.10
2023-05-21T04:13:30.706Z,9.63
2023-05-21T04:15:57.823Z,9.10
2023-05-21T04:18:24.985Z,10.00
2023-05-21T04:20:52.952Z,9.43
2023-05-21T04:23:20.138Z,9.93
2023-05-21T04:25:47.384Z,10.13
2023-05-21T04:28:15.483Z,9.60
2023-05-21T04:30:43.867Z,9.90
2023-05-21T04:33:10.941Z,10.13
2023-05-21T04:35:38.265Z,9.17
2023-05-21T04:38:05.520Z,9.70
2023-05-21T04:40:32.631Z,9.27
2023-05-21T04:43:03.765Z,9.20
2023-05-21T04:45:30.912Z,10.27
2023-05-21T04:48:00.552Z,9.13
2023-05-21T04:50:29.317Z,10.00
2023-05-21T04:52:56.561Z,9.57
2023-05-21T04:55:23.784Z,10.03
2023-05-21T04:57:50.994Z,8.93
2023-05-21T05:00:18.197Z,9.63
2023-05-21T05:02:46.543Z,8.30
2023-05-21T05:05:15.210Z,8.57
2023-05-21T05:07:42.296Z,9.20
2023-05-21T05:10:09.490Z,9.20
2023-05-21T05:12:36.792Z,9.53
2023-05-21T05:15:05.574Z,9.30
2023-05-21T05:17:32.823Z,9.20
2023-05-21T05:19:59.961Z,9.10
2023-05-21T05:22:28.605Z,8.40
2023-05-21T05:24:55.741Z,8.57
2023-05-21T05:27:22.896Z,8.20
2023-05-21T05:29:50.225Z,9.10
2023-05-21T05:32:17.343Z,8.17
2023-05-21T05:34:47.017Z,8.50
2023-05-21T05:39:42.669Z,9.00
2023-05-21T05:42:09.973Z,8.53
2023-05-21T05:44:37.064Z,9.87
2023-05-21T05:47:04.315Z,10.13
2023-05-21T05:49:31.402Z,9.20
2023-05-21T05:51:58.568Z,8.50
2023-05-21T05:54:26.035Z,9.20
2023-05-21T05:56:54.489Z,9.13
2023-05-21T05:59:21.971Z,9.67
2023-05-21T06:01:50.816Z,9.77
2023-05-21T06:04:17.996Z,9.60
2023-05-21T06:06:45.149Z,8.73
2023-05-21T06:09:12.245Z,8.80
2023-05-21T06:11:39.366Z,9.83
2023-05-21T06:14:07.849Z,9.23
2023-05-21T06:16:35.061Z,8.80
2023-05-21T06:19:02.990Z,9.30
2023-05-21T06:21:30.104Z,9.20
2023-05-21T06:23:57.269Z,9.10
2023-05-21T06:26:24.491Z,8.73
2023-05-21T06:28:52.509Z,9.47
2023-05-21T06:31:21.060Z,9.37
2023-05-21T06:33:48.885Z,9.60
2023-05-21T06:36:16.142Z,9.43
2023-05-21T06:38:43.589Z,9.57
2023-05-21T06:41:11.532Z,9.37
2023-05-21T06:43:57.112Z,10.23
2023-05-21T06:46:43.953Z,9.03
2023-05-21T06:49:14.084Z,9.50
2023-05-21T06:51:41.481Z,9.87
2023-05-21T06:54:09.150Z,9.63
2023-05-21T06:56:38.126Z,9.60
2023-05-21T06:59:05.291Z,9.93
2023-05-21T07:01:32.728Z,9.40
2023-05-21T07:04:01.585Z,10.07
2023-05-21T07:06:28.707Z,9.40
2023-05-21T07:08:56.405Z,10.17
2023-05-21T07:11:23.918Z,9.10
2023-05-21T07:13:51.076Z,9.13
2023-05-21T07:16:18.294Z,10.50
2023-05-21T07:18:47.681Z,10.30
2023-05-21T07:21:16.226Z,11.50
2023-05-21T07:23:43.455Z,9.63
2023-05-21T07:26:10.953Z,10.00
2023-05-21T07:28:38.075Z,10.07
2023-05-21T07:31:05.324Z,10.00
2023-05-21T07:33:38.533Z,9.27
2023-05-21T07:36:06.147Z,9.60
2023-05-21T07:38:34.636Z,9.40
2023-05-21T07:41:01.829Z,9.63
2023-05-21T07:43:29.515Z,10.00
2023-05-21T07:45:56.667Z,10.67
2023-05-21T07:48:23.930Z,9.73
2023-05-21T07:50:57.485Z,10.40
2023-05-21T07:53:24.924Z,10.67
2023-05-21T07:55:53.687Z,10.33
2023-05-21T07:58:25.435Z,9.40
2023-05-21T08:00:53.606Z,9.50
2023-05-21T08:03:20.767Z,9.90
2023-05-21T08:05:48.518Z,10.33
2023-05-21T08:08:17.311Z,9.87
2023-05-21T08:10:45.669Z,9.80
2023-05-21T08:13:15.798Z,10.23
2023-05-21T08:15:43.431Z,10.10
2023-05-21T08:18:10.665Z,10.00
2023-05-21T08:20:38.092Z,9.60
2023-05-21T08:23:05.360Z,9.30
2023-05-21T08:25:40.161Z,9.03
2023-05-21T08:28:07.988Z,9.80
2023-05-21T08:30:36.830Z,10.10
2023-05-21T08:33:04.061Z,10.03
2023-05-21T08:35:33.486Z,9.83
2023-05-21T08:38:08.610Z,10.10
2023-05-21T08:40:56.537Z,10.07
2023-05-21T08:43:24.266Z,10.50
2023-05-21T08:45:54.371Z,10.00
2023-05-21T08:48:24.102Z,11.63
2023-05-21T08:50:52.148Z,9.17
2023-05-21T08:53:28.823Z,9.80
2023-05-21T08:55:57.707Z,9.33
2023-05-21T08:58:32.797Z,9.07
2023-05-21T09:01:01.513Z,10.53
2023-05-21T09:03:29.836Z,10.30
2023-05-21T09:05:57.186Z,9.97
2023-05-21T09:08:28.167Z,9.57
2023-05-21T09:11:02.342Z,10.23
2023-05-21T09:13:36.320Z,10.10
2023-05-21T09:16:10.908Z,11.10
2023-05-21T09:18:38.114Z,10.63
2023-05-21T09:21:27.450Z,10.00
2023-05-21T09:23:59.469Z,10.30
2023-05-21T09:26:27.028Z,10.00
2023-05-21T09:28:58.725Z,11.00
2023-05-21T09:31:27.505Z,12.27
2023-05-21T09:33:54.676Z,10.97
2023-05-21T09:36:23.071Z,10.93
2023-05-21T09:38:51.206Z,10.40
2023-05-21T09:41:21.530Z,11.13
2023-05-21T09:43:49.670Z,11.07
2023-05-21T09:46:21.227Z,10.80
2023-05-21T09:48:49.822Z,10.93
2023-05-21T09:51:19.674Z,13.00
2023-05-21T09:53:50.553Z,10.80
2023-05-21T09:56:19.262Z,11.33
2023-05-21T09:58:46.867Z,11.17
2023-05-21T10:01:14.103Z,11.37
2023-05-21T10:03:42.257Z,11.40
2023-05-21T10:06:11.198Z,11.60
2023-05-21T10:08:41.859Z,11.27
2023-05-21T10:11:09.751Z,11.33
2023-05-21T10:13:39.775Z,11.40
2023-05-21T10:16:07.197Z,11.40
2023-05-21T10:18:34.402Z,11.80
2023-05-21T10:21:01.599Z,10.90
2023-05-21T10:23:30.607Z,11.97
2023-05-21T10:25:58.191Z,12.23
2023-05-21T10:28:25.267Z,11.53
2023-05-21T10:30:52.633Z,10.77
2023-05-21T10:33:20.574Z,11.67
2023-05-21T10:35:47.783Z,12.20
2023-05-21T10:38:15.050Z,11.70
2023-05-21T10:40:43.923Z,12.77
2023-05-21T10:43:18.682Z,12.43
2023-05-21T10:45:53.914Z,13.07
2023-05-21T10:48:34.027Z,13.60
2023-05-21T10:51:09.583Z,11.60
2023-05-21T10:53:43.874Z,12.10
2023-05-21T10:56:17.671Z,11.60
2023-05-21T10:59:02.498Z,10.43
2023-05-21T11:01:30.396Z,9.52
2023-05-21T11:03:58.250Z,11.35
2023-05-21T11:06:26.300Z,10.40
2023-05-21T11:08:55.348Z,10.48
2023-05-21T11:11:43.700Z,10.75
2023-05-21T11:14:27.037Z,10.15
2023-05-21T11:16:54.339Z,9.65
2023-05-21T11:19:21.562Z,9.52
2023-05-21T11:21:51.097Z,11.07
2023-05-21T11:24:20.474Z,10.98
2023-05-21T11:27:02.067Z,11.23
2023-05-21T11:29:33.008Z,12.23
2023-05-21T11:32:00.746Z,11.90
2023-05-21T11:34:27.839Z,12.40
2023-05-21T11:37:16.081Z,10.82
2023-05-21T11:39:43.708Z,10.68
2023-05-21T11:42:12.108Z,9.80
2023-05-21T11:44:39.674Z,10.38
2023-05-21T11:47:07.283Z,10.63
2023-05-21T11:49:34.439Z,10.55
2023-05-21T11:52:01.726Z,11.10
2023-05-21T11:54:29.047Z,11.93
2023-05-21T11:56:56.501Z,10.23
2023-05-21T11:59:24.942Z,10.48
2023-05-21T12:01:52.041Z,11.98
2023-05-21T12:04:19.149Z,11.30
2023-05-21T12:06:46.219Z,9.60
2023-05-21T12:09:13.301Z,10.45
2023-05-21T12:11:40.449Z,9.32
2023-05-21T12:14:07.944Z,10.40
2023-05-21T12:16:36.596Z,10.20
2023-05-21T12:19:03.997Z,10.20
2023-05-21T12:21:31.263Z,10.52
2023-05-21T12:23:58.524Z,12.23
2023-05-21T12:26:25.776Z,12.48
2023-05-21T12:28:53.239Z,11.85
2023-05-21T12:31:20.348Z,12.23
2023-05-21T12:33:49.792Z,13.27
2023-05-21T12:36:23.548Z,12.25
2023-05-21T12:38:50.667Z,11.75
2023-05-21T12:41:17.901Z,11.40
2023-05-21T12:43:45.034Z,10.77
2023-05-21T12:46:12.442Z,12.15
2023-05-21T12:48:39.598Z,10.05
2023-05-21T12:51:08.067Z,11.00
2023-05-21T12:53:38.654Z,11.63
2023-05-21T12:56:09.824Z,9.48
2023-05-21T12:58:36.968Z,10.20
2023-05-21T13:01:05.876Z,11.52
2023-05-21T13:03:33.120Z,11.50
2023-05-21T13:06:00.244Z,10.88
2023-05-21T13:08:28.926Z,9.88
2023-05-21T13:10:56.035Z,11.30
2023-05-21T13:13:23.199Z,11.75
2023-05-21T13:15:50.326Z,10.40
2023-05-21T13:18:17.496Z,12.88
2023-05-21T13:20:44.673Z,12.88
2023-05-21T13:23:12.035Z,12.77
2023-05-21T13:25:40.491Z,13.45
2023-05-21T13:28:07.614Z,11.70
2023-05-21T13:30:34.930Z,9.43
2023-05-21T13:33:02.436Z,10.50
2023-05-21T13:35:29.602Z,11.57
2023-05-21T13:37:56.666Z,9.90
2023-05-21T13:40:27.374Z,11.65
2023-05-21T13:42:55.819Z,12.27
2023-05-21T13:45:22.954Z,11.70
2023-05-21T13:47:50.159Z,10.95
2023-05-21T13:50:17.511Z,10.75
2023-05-21T13:52:44.626Z,11.02
2023-05-21T13:55:11.738Z,10.32
2023-05-21T13:57:39.183Z,11.85
2023-05-21T14:00:08.616Z,11.25
2023-05-21T14:02:35.835Z,11.48
2023-05-21T14:05:02.957Z,10.25
2023-05-21T14:07:30.150Z,10.32
2023-05-21T14:09:57.295Z,10.95
2023-05-21T14:12:24.398Z,11.38
2023-05-21T14:14:51.685Z,13.15
2023-05-21T14:17:20.100Z,12.73
2023-05-21T14:19:47.191Z,12.70
2023-05-21T14:22:14.328Z,10.65
2023-05-21T14:24:41.397Z,11.98
2023-05-21T14:27:08.501Z,12.50
2023-05-21T14:29:35.620Z,14.10
2023-05-21T14:32:02.851Z,12.73
2023-05-21T14:34:31.386Z,13.20
2023-05-21T14:36:58.513Z,12.15
2023-05-21T14:39:25.605Z,14.48
2023-05-21T14:41:52.691Z,13.68
2023-05-21T14:44:19.852Z,14.02
2023-05-21T14:46:47.025Z,14.82
2023-05-21T14:49:14.210Z,13.70
2023-05-21T14:51:42.670Z,14.48
2023-05-21T14:54:09.779Z,14.55
2023-05-21T14:56:36.981Z,13.90
2023-05-21T14:59:04.044Z,13.55
2023-05-21T15:01:31.192Z,13.13
2023-05-21T15:03:58.565Z,12.63
2023-05-21T15:06:25.920Z,13.52
2023-05-21T15:08:54.352Z,14.32
2023-05-21T15:11:21.493Z,13.02
2023-05-21T15:13:48.655Z,13.18
2023-05-21T15:16:17.228Z,13.07
2023-05-21T15:18:46.429Z,12.57
2023-05-21T15:21:13.551Z,13.32
2023-05-21T15:23:40.657Z,12.40
2023-05-21T15:26:09.093Z,13.38
2023-05-21T15:28:36.194Z,12.77
2023-05-21T15:31:03.597Z,11.95
2023-05-21T15:33:30.720Z,12.35
2023-05-21T15:35:57.874Z,10.77
2023-05-21T15:38:25.186Z,11.05
2023-05-21T15:40:52.331Z,11.27
2023-05-21T15:43:20.784Z,12.25
2023-05-21T15:45:47.883Z,12.27
2023-05-21T15:48:15.042Z,12.18
2023-05-21T15:50:42.210Z,11.00
2023-05-21T15:53:11.487Z,11.82
2023-05-21T15:55:38.837Z,11.07
2023-05-21T15:58:06.096Z,11.10
2023-05-21T16:00:34.703Z,11.45
2023-05-21T16:03:01.922Z,11.10
2023-05-21T16:05:29.050Z,10.65
2023-05-21T16:07:56.211Z,11.15
2023-05-21T16:10:26.156Z,10.98
2023-05-21T16:12:53.254Z,10.70
2023-05-21T16:15:20.343Z,10.90
2023-05-21T16:17:48.794Z,10.18
2023-05-21T16:20:16.081Z,10.60
2023-05-21T16:22:43.191Z,9.95
2023-05-21T16:25:10.320Z,10.77
2023-05-21T16:27:37.477Z,10.38
2023-05-21T16:30:04.920Z,11.40
2023-05-21T16:32:32.072Z,11.00
2023-05-21T16:35:00.604Z,11.00
2023-05-21T16:37:27.794Z,12.00
2023-05-21T16:39:54.939Z,11.68
2023-05-21T16:42:22.088Z,11.20
2023-05-21T16:44:49.205Z,12.13
2023-05-21T16:47:16.332Z,11.38
2023-05-21T16:49:43.416Z,13.05
2023-05-21T16:52:11.827Z,11.25
2023-05-21T16:54:39.017Z,11.68
2023-05-21T16:57:06.367Z,11.07
2023-05-21T16:59:33.477Z,11.82
2023-05-21T17:02:00.710Z,11.25
2023-05-21T17:04:28.321Z,11.70
2023-05-21T17:06:55.454Z,12.85
2023-05-21T17:09:23.947Z,11.70
2023-05-21T17:11:51.053Z,11.73
2023-05-21T17:14:32.630Z,12.02
2023-05-21T17:17:00.768Z,11.52
2023-05-21T17:19:28.304Z,12.90
2023-05-21T17:21:55.581Z,13.55
2023-05-21T17:24:24.152Z,12.10
2023-05-21T17:26:51.338Z,12.03
2023-05-21T17:29:18.423Z,12.63
2023-05-21T17:31:45.555Z,12.60
2023-05-21T17:34:12.658Z,13.43
2023-05-21T17:36:39.734Z,12.33
2023-05-21T17:39:06.820Z,12.63
2023-05-21T17:41:35.279Z,13.00
2023-05-21T17:44:02.344Z,13.30
2023-05-21T17:46:29.479Z,12.50
2023-05-21T17:48:56.580Z,13.20
2023-05-21T17:51:23.682Z,14.27
2023-05-21T17:53:50.758Z,12.67
2023-05-21T17:56:17.862Z,12.97
2023-05-21T17:58:46.382Z,13.40
2023-05-21T18:01:13.510Z,13.87
2023-05-21T18:03:40.651Z,13.80
2023-05-21T18:06:09.556Z,14.27
2023-05-21T18:08:36.851Z,16.10
2023-05-21T18:11:04.094Z,18.00
2023-05-21T18:13:31.339Z,17.60
2023-05-21T18:15:59.993Z,18.93
2023-05-21T18:18:27.122Z,19.70
2023-05-21T18:20:54.208Z,19.90
2023-05-21T18:23:21.330Z,19.43
2023-05-21T18:25:48.608Z,19.70
2023-05-21T18:28:15.735Z,18.17
2023-05-21T18:30:42.866Z,19.13
2023-05-21T18:33:11.431Z,19.80
2023-05-21T18:35:38.614Z,18.33
2023-05-21T18:38:05.687Z,18.97
2023-05-21T18:40:32.799Z,20.93
2023-05-21T18:42:59.883Z,21.27
2023-05-21T18:45:27.146Z,20.27
2023-05-21T18:47:54.325Z,20.43
2023-05-21T18:50:23.012Z,21.37
2023-05-21T18:52:51.668Z,24.80
2023-05-21T18:55:19.935Z,22.30
2023-05-21T18:57:46.980Z,25.47
2023-05-21T19:00:14.462Z,24.80
2023-05-21T19:02:41.667Z,25.50
2023-05-21T19:05:09.285Z,25.10
2023-05-21T19:07:37.819Z,26.80
2023-05-21T19:10:05.174Z,26.20
2023-05-21T19:12:32.321Z,29.27
2023-05-21T19:14:59.391Z,26.80
2023-05-21T19:17:26.530Z,26.80
2023-05-21T19:19:53.678Z,26.27
2023-05-21T19:22:20.755Z,25.10
2023-05-21T19:24:49.184Z,24.00
2023-05-21T19:27:16.309Z,26.97
2023-05-21T19:29:43.357Z,26.13
2023-05-21T19:32:10.617Z,26.20
2023-05-21T19:34:37.859Z,27.93
2023-05-21T19:37:04.966Z,28.70
2023-05-21T19:39:37.229Z,27.47
2023-05-21T19:42:05.966Z,27.00
2023-05-21T19:44:33.094Z,26.50
2023-05-21T19:47:00.730Z,27.60
2023-05-21T19:49:28.043Z,29.10
2023-05-21T19:51:55.653Z,30.27
2023-05-21T19:54:23.013Z,30.40
2023-05-21T19:56:50.298Z,31.90
2023-05-21T19:59:18.716Z,29.87
2023-05-21T20:01:46.435Z,31.97
2023-05-21T20:04:13.698Z,32.37
2023-05-21T20:06:41.183Z,29.97
2023-05-21T20:09:08.450Z,33.73
2023-05-21T20:11:35.514Z,32.10
2023-05-21T20:14:02.586Z,31.03
2023-05-21T20:16:31.096Z,31.33
2023-05-21T20:18:58.392Z,29.40
2023-05-21T20:21:25.632Z,29.13
2023-05-21T20:23:53.538Z,32.17
2023-05-21T20:26:20.637Z,29.10
2023-05-21T20:28:47.815Z,28.73
2023-05-21T20:31:15.216Z,29.87
2023-05-21T20:33:43.689Z,32.10
2023-05-21T20:36:10.773Z,29.60
2023-05-21T20:38:37.914Z,31.43
2023-05-21T20:41:05.411Z,30.60
2023-05-21T20:43:32.540Z,30.87
2023-05-21T20:45:59.889Z,30.87
2023-05-21T20:48:27.234Z,31.77
2023-05-21T20:50:55.711Z,32.20
2023-05-21T20:53:22.862Z,31.70
2023-05-21T20:55:50.040Z,29.87
2023-05-21T20:58:17.158Z,30.20
2023-05-21T21:00:44.272Z,31.80
2023-05-21T21:03:11.499Z,31.90
2023-05-21T21:05:38.810Z,30.77
2023-05-21T21:08:07.379Z,33.77
2023-05-21T21:10:34.854Z,31.77
2023-05-21T21:13:01.955Z,29.83
2023-05-21T21:15:29.076Z,32.60
2023-05-21T21:17:56.276Z,30.80
2023-05-21T21:20:24.348Z,32.43
2023-05-21T21:22:51.488Z,32.10
2023-05-21T21:25:20.004Z,31.87
2023-05-21T21:27:47.116Z,30.73
2023-05-21T21:30:14.311Z,33.63
2023-05-21T21:32:41.607Z,31.70
2023-05-21T21:35:09.118Z,32.27
2023-05-21T21:37:36.254Z,32.70
2023-05-21T21:40:03.423Z,34.20
2023-05-21T21:42:31.866Z,33.43
2023-05-21T21:44:58.943Z,33.60
2023-05-21T21:47:26.083Z,35.00
2023-05-21T21:49:53.257Z,33.40
2023-05-21T21:52:20.360Z,34.43
2023-05-21T21:54:47.447Z,33.53
2023-05-21T21:57:14.612Z,35.10
2023-05-21T21:59:43.076Z,35.20
2023-05-21T22:02:10.251Z,32.80
2023-05-21T22:04:37.432Z,31.10
2023-05-21T22:07:04.716Z,32.33
2023-05-21T22:09:31.827Z,33.53
2023-05-21T22:11:58.957Z,36.73
2023-05-21T22:14:26.041Z,34.60
2023-05-21T22:16:54.532Z,32.97
2023-05-21T22:19:21.671Z,35.03
2023-05-21T22:21:48.781Z,33.10
2023-05-21T22:24:30.986Z,34.00
2023-05-21T22:26:58.851Z,33.50
2023-05-21T22:29:25.971Z,33.10
2023-05-21T22:31:54.361Z,32.47
2023-05-21T22:34:21.475Z,31.27
2023-05-21T22:36:48.622Z,30.63
2023-05-21T22:39:15.703Z,28.20
2023-05-21T22:41:42.957Z,31.40
2023-05-21T22:44:10.072Z,30.00
2023-05-21T22:46:37.281Z,29.30
2023-05-21T22:49:05.783Z,29.43
2023-05-21T22:51:32.887Z,29.70
2023-05-21T22:54:00.029Z,33.77
2023-05-21T22:56:27.195Z,32.97
2023-05-21T22:58:54.288Z,33.10
2023-05-21T23:01:21.718Z,31.73
2023-05-21T23:03:48.840Z,32.80
2023-05-21T23:06:17.382Z,29.47
2023-05-21T23:08:44.459Z,31.00
2023-05-21T23:11:11.538Z,31.03
2023-05-21T23:13:38.647Z,30.20
2023-05-21T23:16:05.965Z,29.77
2023-05-21T23:18:33.121Z,29.23
2023-05-21T23:21:00.272Z,27.23
2023-05-21T23:23:28.738Z,28.97
2023-05-21T23:25:55.877Z,27.80
2023-05-21T23:28:22.978Z,27.93
2023-05-21T23:30:50.070Z,26.60
2023-05-21T23:33:17.196Z,28.37
2023-05-21T23:35:44.309Z,29.53
2023-05-21T23:38:11.389Z,27.30
2023-05-21T23:40:39.960Z,27.87
2023-05-21T23:43:07.245Z,26.50
2023-05-21T23:45:34.356Z,27.10
2023-05-21T23:48:01.770Z,25.97
2023-05-21T23:50:28.916Z,26.00
2023-05-21T23:52:56.121Z,27.70
2023-05-21T23:55:25.472Z,26.90
2023-05-21T23:57:53.852Z,24.90
